sensor_id;sensor_type;location;lat;lon;timestamp;P1;durP1;ratioP1;P2;durP2;ratioP2
13687;SDS011;6916;51.504;7.416;2023-07-24T00:04:31;3.28;;;2.30;;
13687;SDS011;6916;51.504;7.416;2023-07-24T00:14:34;3.47;;;1.80;;
13687;SDS011;6916;51.504;7.416;2023-07-24T00:24:37;2.95;;;1.75;;
13687;SDS011;6916;51.504;7.416;2023-07-24T00:34:39;3.45;;;2.20;;
13687;SDS011;6916;51.504;7.416;2023-07-24T00:44:42;4.40;;;2.40;;
13687;SDS011;6916;51.504;7.416;2023-07-24T00:54:44;1.90;;;1.80;;
13687;SDS011;6916;51.504;7.416;2023-07-24T01:04:48;2.33;;;2.20;;
13687;SDS011;6916;51.504;7.416;2023-07-24T01:14:55;4.63;;;2.40;;
13687;SDS011;6916;51.504;7.416;2023-07-24T01:35:38;1.92;;;1.80;;
13687;SDS011;6916;51.504;7.416;2023-07-24T01:45:40;1.88;;;1.77;;
13687;SDS011;6916;51.504;7.416;2023-07-24T01:55:43;1.77;;;1.65;;
13687;SDS011;6916;51.504;7.416;2023-07-24T02:05:49;2.65;;;1.90;;
13687;SDS011;6916;51.504;7.416;2023-07-24T02:15:53;4.38;;;2.17;;
13687;SDS011;6916;51.504;7.416;2023-07-24T02:25:56;2.70;;;2.10;;
13687;SDS011;6916;51.504;7.416;2023-07-24T02:36:00;4.13;;;2.35;;
13687;SDS011;6916;51.504;7.416;2023-07-24T02:46:02;4.05;;;2.38;;
13687;SDS011;6916;51.504;7.416;2023-07-24T02:56:05;2.70;;;2.20;;
13687;SDS011;6916;51.504;7.416;2023-07-24T03:06:08;4.20;;;2.72;;
13687;SDS011;6916;51.504;7.416;2023-07-24T03:16:10;3.70;;;2.70;;
13687;SDS011;6916;51.504;7.416;2023-07-24T03:26:12;2.97;;;2.60;;
13687;SDS011;6916;51.504;7.416;2023-07-24T03:36:15;5.13;;;2.95;;
13687;SDS011;6916;51.504;7.416;2023-07-24T03:46:17;5.88;;;3.03;;
13687;SDS011;6916;51.504;7.416;2023-07-24T03:56:20;5.72;;;3.60;;
13687;SDS011;6916;51.504;7.416;2023-07-24T04:06:22;5.47;;;3.65;;
13687;SDS011;6916;51.504;7.416;2023-07-24T04:16:25;6.15;;;3.25;;
13687;SDS011;6916;51.504;7.416;2023-07-24T04:26:30;3.83;;;2.90;;
13687;SDS011;6916;51.504;7.416;2023-07-24T04:36:33;6.53;;;3.25;;
13687;SDS011;6916;51.504;7.416;2023-07-24T04:46:36;5.38;;;3.08;;
13687;SDS011;6916;51.504;7.416;2023-07-24T04:56:38;3.70;;;2.58;;
13687;SDS011;6916;51.504;7.416;2023-07-24T05:06:41;6.78;;;3.53;;
13687;SDS011;6916;51.504;7.416;2023-07-24T05:16:43;5.15;;;3.45;;
13687;SDS011;6916;51.504;7.416;2023-07-24T05:26:46;5.65;;;3.20;;
13687;SDS011;6916;51.504;7.416;2023-07-24T05:36:49;4.93;;;3.90;;
13687;SDS011;6916;51.504;7.416;2023-07-24T05:46:51;5.93;;;4.00;;
13687;SDS011;6916;51.504;7.416;2023-07-24T05:56:54;7.40;;;3.78;;
13687;SDS011;6916;51.504;7.416;2023-07-24T06:06:56;8.55;;;4.07;;
13687;SDS011;6916;51.504;7.416;2023-07-24T06:16:59;4.78;;;3.95;;
13687;SDS011;6916;51.504;7.416;2023-07-24T06:27:02;4.95;;;3.47;;
13687;SDS011;6916;51.504;7.416;2023-07-24T06:37:05;8.23;;;4.00;;
13687;SDS011;6916;51.504;7.416;2023-07-24T06:47:23;5.32;;;3.60;;
13687;SDS011;6916;51.504;7.416;2023-07-24T06:57:26;6.07;;;4.45;;
13687;SDS011;6916;51.504;7.416;2023-07-24T07:07:28;5.15;;;3.70;;
13687;SDS011;6916;51.504;7.416;2023-07-24T07:17:31;6.97;;;4.40;;
13687;SDS011;6916;51.504;7.416;2023-07-24T07:27:33;3.95;;;3.05;;
13687;SDS011;6916;51.504;7.416;2023-07-24T07:37:36;5.03;;;3.67;;
13687;SDS011;6916;51.504;7.416;2023-07-24T07:47:39;5.13;;;3.03;;
13687;SDS011;6916;51.504;7.416;2023-07-24T07:57:43;4.13;;;2.88;;
13687;SDS011;6916;51.504;7.416;2023-07-24T08:07:45;4.03;;;3.45;;
13687;SDS011;6916;51.504;7.416;2023-07-24T08:17:48;3.80;;;3.25;;
13687;SDS011;6916;51.504;7.416;2023-07-24T08:27:51;3.53;;;2.70;;
13687;SDS011;6916;51.504;7.416;2023-07-24T08:38:06;3.67;;;2.72;;
13687;SDS011;6916;51.504;7.416;2023-07-24T08:48:09;3.10;;;2.72;;
13687;SDS011;6916;51.504;7.416;2023-07-24T08:58:12;4.47;;;2.63;;
13687;SDS011;6916;51.504;7.416;2023-07-24T09:08:15;3.42;;;1.90;;
13687;SDS011;6916;51.504;7.416;2023-07-24T09:18:17;4.15;;;2.47;;
13687;SDS011;6916;51.504;7.416;2023-07-24T09:28:25;3.00;;;2.25;;
13687;SDS011;6916;51.504;7.416;2023-07-24T09:38:28;1.95;;;1.77;;
13687;SDS011;6916;51.504;7.416;2023-07-24T09:48:30;4.53;;;2.30;;
13687;SDS011;6916;51.504;7.416;2023-07-24T09:58:37;4.38;;;2.17;;
13687;SDS011;6916;51.504;7.416;2023-07-24T10:08:43;3.88;;;2.03;;
13687;SDS011;6916;51.504;7.416;2023-07-24T10:18:46;2.90;;;1.92;;
13687;SDS011;6916;51.504;7.416;2023-07-24T10:28:50;3.45;;;2.83;;
13687;SDS011;6916;51.504;7.416;2023-07-24T10:38:53;3.63;;;3.30;;
13687;SDS011;6916;51.504;7.416;2023-07-24T10:49:00;4.32;;;3.90;;
13687;SDS011;6916;51.504;7.416;2023-07-24T10:59:06;3.65;;;3.20;;
13687;SDS011;6916;51.504;7.416;2023-07-24T11:09:09;4.00;;;3.35;;
13687;SDS011;6916;51.504;7.416;2023-07-24T11:19:11;4.00;;;3.08;;
13687;SDS011;6916;51.504;7.416;2023-07-24T11:29:14;5.35;;;3.58;;
13687;SDS011;6916;51.504;7.416;2023-07-24T11:39:23;3.95;;;3.60;;
13687;SDS011;6916;51.504;7.416;2023-07-24T11:49:27;3.70;;;3.38;;
13687;SDS011;6916;51.504;7.416;2023-07-24T11:59:36;4.35;;;3.72;;
13687;SDS011;6916;51.504;7.416;2023-07-24T12:09:39;5.45;;;3.97;;
13687;SDS011;6916;51.504;7.416;2023-07-24T12:19:42;6.07;;;4.35;;
13687;SDS011;6916;51.504;7.416;2023-07-24T12:29:45;4.68;;;2.20;;
13687;SDS011;6916;51.504;7.416;2023-07-24T12:39:49;3.25;;;2.00;;
13687;SDS011;6916;51.504;7.416;2023-07-24T12:49:51;2.38;;;2.00;;
13687;SDS011;6916;51.504;7.416;2023-07-24T12:59:57;1.08;;;0.70;;
13687;SDS011;6916;51.504;7.416;2023-07-24T13:10:00;1.85;;;0.60;;
13687;SDS011;6916;51.504;7.416;2023-07-24T13:20:03;1.13;;;0.80;;
13687;SDS011;6916;51.504;7.416;2023-07-24T13:30:06;0.60;;;0.60;;
13687;SDS011;6916;51.504;7.416;2023-07-24T13:40:09;0.95;;;0.60;;
13687;SDS011;6916;51.504;7.416;2023-07-24T13:50:12;4.22;;;1.60;;
13687;SDS011;6916;51.504;7.416;2023-07-24T14:00:14;2.75;;;1.77;;
13687;SDS011;6916;51.504;7.416;2023-07-24T14:10:17;1.98;;;1.42;;
13687;SDS011;6916;51.504;7.416;2023-07-24T14:20:20;1.20;;;1.10;;
13687;SDS011;6916;51.504;7.416;2023-07-24T14:30:23;1.20;;;1.20;;
13687;SDS011;6916;51.504;7.416;2023-07-24T14:40:25;2.42;;;2.22;;
13687;SDS011;6916;51.504;7.416;2023-07-24T14:50:28;2.58;;;2.35;;
13687;SDS011;6916;51.504;7.416;2023-07-24T15:00:34;1.75;;;1.55;;
13687;SDS011;6916;51.504;7.416;2023-07-24T15:10:36;2.35;;;1.80;;
13687;SDS011;6916;51.504;7.416;2023-07-24T15:20:39;4.32;;;2.90;;
13687;SDS011;6916;51.504;7.416;2023-07-24T15:30:43;4.72;;;3.50;;
13687;SDS011;6916;51.504;7.416;2023-07-24T15:40:45;5.80;;;5.30;;
13687;SDS011;6916;51.504;7.416;2023-07-24T15:50:48;6.75;;;5.30;;
13687;SDS011;6916;51.504;7.416;2023-07-24T16:00:51;2.95;;;2.75;;
13687;SDS011;6916;51.504;7.416;2023-07-24T16:10:54;3.30;;;3.00;;
13687;SDS011;6916;51.504;7.416;2023-07-24T16:20:56;4.28;;;1.95;;
13687;SDS011;6916;51.504;7.416;2023-07-24T16:31:04;3.80;;;2.53;;
13687;SDS011;6916;51.504;7.416;2023-07-24T16:41:07;3.55;;;2.85;;
13687;SDS011;6916;51.504;7.416;2023-07-24T16:51:09;3.75;;;3.22;;
13687;SDS011;6916;51.504;7.416;2023-07-24T17:01:12;5.85;;;3.72;;
13687;SDS011;6916;51.504;7.416;2023-07-24T17:11:15;5.43;;;3.72;;
13687;SDS011;6916;51.504;7.416;2023-07-24T17:21:22;6.60;;;5.38;;
13687;SDS011;6916;51.504;7.416;2023-07-24T17:31:25;7.30;;;5.32;;
13687;SDS011;6916;51.504;7.416;2023-07-24T17:41:30;3.90;;;3.58;;
13687;SDS011;6916;51.504;7.416;2023-07-24T17:51:34;3.42;;;3.13;;
13687;SDS011;6916;51.504;7.416;2023-07-24T18:01:37;4.47;;;3.45;;
13687;SDS011;6916;51.504;7.416;2023-07-24T18:11:40;7.65;;;5.47;;
13687;SDS011;6916;51.504;7.416;2023-07-24T18:21:43;4.03;;;3.63;;
13687;SDS011;6916;51.504;7.416;2023-07-24T18:31:54;4.15;;;3.85;;
13687;SDS011;6916;51.504;7.416;2023-07-24T18:41:57;3.88;;;3.53;;
13687;SDS011;6916;51.504;7.416;2023-07-24T18:52:00;3.08;;;2.78;;
13687;SDS011;6916;51.504;7.416;2023-07-24T19:02:03;3.50;;;2.58;;
13687;SDS011;6916;51.504;7.416;2023-07-24T19:12:06;3.88;;;2.75;;
13687;SDS011;6916;51.504;7.416;2023-07-24T19:22:09;6.72;;;2.83;;
13687;SDS011;6916;51.504;7.416;2023-07-24T19:32:16;3.78;;;2.78;;
13687;SDS011;6916;51.504;7.416;2023-07-24T19:42:19;4.43;;;2.50;;
13687;SDS011;6916;51.504;7.416;2023-07-24T19:52:21;3.70;;;3.40;;
13687;SDS011;6916;51.504;7.416;2023-07-24T20:02:25;6.75;;;4.63;;
13687;SDS011;6916;51.504;7.416;2023-07-24T20:12:27;37.88;;;19.80;;
13687;SDS011;6916;51.504;7.416;2023-07-24T20:22:30;9.40;;;7.60;;
13687;SDS011;6916;51.504;7.416;2023-07-24T20:32:33;12.70;;;8.55;;
13687;SDS011;6916;51.504;7.416;2023-07-24T20:42:35;11.10;;;9.15;;
13687;SDS011;6916;51.504;7.416;2023-07-24T20:52:40;11.23;;;9.20;;
13687;SDS011;6916;51.504;7.416;2023-07-24T21:02:43;9.18;;;8.32;;
13687;SDS011;6916;51.504;7.416;2023-07-24T21:12:46;7.75;;;6.70;;
13687;SDS011;6916;51.504;7.416;2023-07-24T21:22:48;7.83;;;5.93;;
13687;SDS011;6916;51.504;7.416;2023-07-24T21:32:51;5.43;;;4.55;;
13687;SDS011;6916;51.504;7.416;2023-07-24T21:42:54;6.67;;;5.20;;
13687;SDS011;6916;51.504;7.416;2023-07-24T21:52:57;4.90;;;3.88;;
13687;SDS011;6916;51.504;7.416;2023-07-24T22:02:59;7.30;;;3.38;;
13687;SDS011;6916;51.504;7.416;2023-07-24T22:13:02;8.52;;;2.72;;
13687;SDS011;6916;51.504;7.416;2023-07-24T22:23:05;3.78;;;2.53;;
13687;SDS011;6916;51.504;7.416;2023-07-24T22:33:07;6.33;;;2.23;;
13687;SDS011;6916;51.504;7.416;2023-07-24T22:43:10;4.13;;;2.40;;
13687;SDS011;6916;51.504;7.416;2023-07-24T22:53:14;2.17;;;1.30;;
13687;SDS011;6916;51.504;7.416;2023-07-24T23:03:16;3.67;;;1.60;;
13687;SDS011;6916;51.504;7.416;2023-07-24T23:13:19;4.80;;;2.10;;
13687;SDS011;6916;51.504;7.416;2023-07-24T23:23:22;4.90;;;2.00;;
13687;SDS011;6916;51.504;7.416;2023-07-24T23:33:24;3.47;;;1.80;;
13687;SDS011;6916;51.504;7.416;2023-07-24T23:43:26;5.83;;;1.73;;
13687;SDS011;6916;51.504;7.416;2023-07-24T23:53:29;3.65;;;1.05;;
